createdAt,value
2019-04-05T00:00:13.854Z,5.33
2019-04-05T00:02:43.319Z,5.07
2019-04-05T00:05:13.391Z,6.13
2019-04-05T00:07:42.859Z,4.87
2019-04-05T00:10:12.756Z,4.30
2019-04-05T00:12:42.283Z,5.77
2019-04-05T00:15:15.776Z,4.90
2019-04-05T00:17:43.243Z,4.47
2019-04-05T00:20:12.793Z,5.73
2019-04-05T00:22:42.240Z,4.63
2019-04-05T00:25:11.789Z,4.20
2019-04-05T00:27:41.238Z,5.13
2019-04-05T00:30:11.097Z,4.63
2019-04-05T00:32:40.569Z,5.27
2019-04-05T00:35:10.175Z,4.87
2019-04-05T00:37:39.655Z,4.53
2019-04-05T00:40:10.572Z,4.80
2019-04-05T00:42:39.992Z,4.77
2019-04-05T00:45:09.993Z,4.80
2019-04-05T00:47:39.475Z,5.20
2019-04-05T00:50:09.529Z,4.73
2019-04-05T00:52:39.159Z,4.50
2019-04-05T00:55:09.660Z,4.93
2019-04-05T00:57:39.210Z,4.83
2019-04-05T01:00:09.082Z,5.17
2019-04-05T01:02:38.632Z,4.83
2019-04-05T01:05:08.206Z,4.27
2019-04-05T01:07:37.799Z,4.23
2019-04-05T01:10:09.564Z,5.27
2019-04-05T01:12:41.395Z,4.80
2019-04-05T01:15:12.635Z,4.57
2019-04-05T01:17:42.734Z,5.33
2019-04-05T01:20:14.442Z,4.63
2019-04-05T01:22:45.484Z,4.97
2019-04-05T01:25:15.113Z,5.63
2019-04-05T01:27:44.791Z,4.50
2019-04-05T01:30:17.480Z,4.93
2019-04-05T01:32:48.020Z,4.97
2019-04-05T01:35:17.619Z,4.80
2019-04-05T01:37:47.661Z,5.63
2019-04-05T01:40:17.443Z,5.33
2019-04-05T01:42:47.676Z,4.97
2019-04-05T01:45:17.227Z,4.97
2019-04-05T01:47:46.682Z,4.80
2019-04-05T01:50:16.298Z,4.47
2019-04-05T01:52:46.365Z,4.20
2019-04-05T01:55:16.108Z,5.03
2019-04-05T01:57:45.610Z,4.43
2019-04-05T02:00:15.762Z,4.80
2019-04-05T02:02:45.614Z,4.23
2019-04-05T02:05:15.560Z,4.73
2019-04-05T02:07:45.158Z,4.43
2019-04-05T02:10:16.870Z,4.73
2019-04-05T02:12:46.470Z,4.47
2019-04-05T02:15:28.648Z,4.80
2019-04-05T02:17:59.200Z,4.73
2019-04-05T02:20:28.839Z,5.37
2019-04-05T02:22:58.419Z,5.53
2019-04-05T02:25:28.034Z,5.77
2019-04-05T02:27:57.553Z,5.63
2019-04-05T02:30:27.582Z,4.90
2019-04-05T02:32:57.190Z,5.13
2019-04-05T02:35:27.225Z,5.23
2019-04-05T02:37:56.861Z,4.40
2019-04-05T02:40:27.720Z,4.90
2019-04-05T02:43:00.287Z,4.43
2019-04-05T02:45:32.831Z,5.30
2019-04-05T02:48:05.435Z,4.73
2019-04-05T02:50:38.213Z,5.03
2019-04-05T02:53:10.222Z,4.80
2019-04-05T02:55:41.916Z,5.07
2019-04-05T02:58:13.512Z,5.63
2019-04-05T03:00:44.692Z,4.63
2019-04-05T03:03:15.174Z,5.10
2019-04-05T03:05:47.112Z,5.07
2019-04-05T03:08:17.857Z,5.03
2019-04-05T03:11:03.595Z,5.50
2019-04-05T03:13:36.575Z,4.50
2019-04-05T03:16:10.769Z,5.17
2019-04-05T03:18:44.994Z,5.53
2019-04-05T03:21:16.818Z,4.90
2019-04-05T03:23:47.313Z,4.67
2019-04-05T03:26:19.498Z,5.20
2019-04-05T03:28:52.805Z,5.10
2019-04-05T03:31:24.996Z,4.67
2019-04-05T03:33:54.100Z,5.10
2019-04-05T03:36:24.154Z,5.50
2019-04-05T03:38:54.166Z,5.33
2019-04-05T03:41:24.374Z,5.43
2019-04-05T03:43:54.012Z,4.73
2019-04-05T03:46:23.535Z,4.80
2019-04-05T03:48:53.050Z,5.23
2019-04-05T03:51:22.593Z,5.90
2019-04-05T03:53:52.281Z,5.03
2019-04-05T03:56:21.889Z,4.97
2019-04-05T03:58:51.617Z,5.13
2019-04-05T04:01:21.158Z,4.83
2019-04-05T04:03:50.881Z,4.43
2019-04-05T04:06:20.397Z,4.93
2019-04-05T04:08:49.917Z,4.80
2019-04-05T04:11:19.528Z,5.50
2019-04-05T04:13:49.718Z,4.57
2019-04-05T04:16:19.704Z,5.10
2019-04-05T04:18:50.146Z,5.10
2019-04-05T04:21:31.783Z,5.47
2019-04-05T04:24:01.604Z,6.70
2019-04-05T04:26:31.898Z,5.67
2019-04-05T04:29:01.454Z,5.83
2019-04-05T04:31:31.439Z,5.43
2019-04-05T04:34:01.458Z,7.57
2019-04-05T04:36:31.294Z,6.43
2019-04-05T04:39:01.055Z,5.17
2019-04-05T04:41:32.138Z,5.80
2019-04-05T04:44:02.035Z,6.13
2019-04-05T04:46:32.229Z,5.57
2019-04-05T04:49:02.409Z,6.20
2019-04-05T04:51:32.725Z,5.47
2019-04-05T04:54:02.412Z,4.00
2019-04-05T04:56:32.318Z,4.47
2019-04-05T04:59:02.108Z,4.20
2019-04-05T05:01:31.730Z,4.97
2019-04-05T05:04:02.327Z,5.23
2019-04-05T05:06:32.037Z,5.57
2019-04-05T05:09:01.959Z,5.03
2019-04-05T05:11:31.658Z,4.37
2019-04-05T05:14:01.667Z,4.00
2019-04-05T05:16:31.293Z,4.83
2019-04-05T05:19:01.428Z,5.07
2019-04-05T05:21:31.212Z,6.10
2019-04-05T05:24:01.095Z,4.93
2019-04-05T05:26:31.101Z,5.27
2019-04-05T05:29:00.894Z,5.27
2019-04-05T05:31:30.644Z,5.40
2019-04-05T05:34:00.622Z,5.17
2019-04-05T05:36:30.184Z,5.23
2019-04-05T05:38:59.861Z,5.57
2019-04-05T05:41:29.297Z,5.43
2019-04-05T05:43:58.838Z,5.53
2019-04-05T05:46:28.452Z,4.73
2019-04-05T05:48:57.979Z,5.50
2019-04-05T05:51:27.779Z,4.57
2019-04-05T05:53:57.300Z,5.00
2019-04-05T05:56:26.862Z,5.50
2019-04-05T05:58:59.428Z,5.33
2019-04-05T06:01:27.963Z,4.87
2019-04-05T06:03:57.514Z,5.27
2019-04-05T06:06:27.132Z,5.83
2019-04-05T06:08:56.583Z,5.77
2019-04-05T06:11:26.065Z,5.97
2019-04-05T06:13:55.517Z,5.40
2019-04-05T06:16:46.612Z,6.87
2019-04-05T06:19:15.603Z,6.73
2019-04-05T06:21:45.050Z,5.93
2019-04-05T06:24:14.531Z,6.53
2019-04-05T06:26:43.981Z,6.67
2019-04-05T06:29:13.468Z,6.33
2019-04-05T06:31:43.046Z,7.10
2019-04-05T06:34:12.495Z,7.20
2019-04-05T06:36:42.162Z,7.30
2019-04-05T06:39:11.740Z,7.53
2019-04-05T06:41:41.202Z,6.10
2019-04-05T06:44:10.693Z,6.63
2019-04-05T06:46:40.144Z,7.53
2019-04-05T06:49:09.622Z,8.20
2019-04-05T06:51:39.110Z,6.33
2019-04-05T06:54:08.557Z,8.10
2019-04-05T06:56:38.184Z,9.90
2019-04-05T06:59:07.632Z,10.07
2019-04-05T07:01:37.232Z,7.40
2019-04-05T07:04:06.892Z,8.60
2019-04-05T07:06:36.345Z,7.53
2019-04-05T07:09:07.474Z,8.23
2019-04-05T07:11:36.968Z,8.60
2019-04-05T07:14:06.651Z,10.50
2019-04-05T07:16:36.258Z,10.70
2019-04-05T07:19:05.889Z,8.20
2019-04-05T07:21:35.360Z,8.70
2019-04-05T07:24:04.964Z,9.47
2019-04-05T07:26:34.437Z,10.57
2019-04-05T07:29:03.974Z,8.13
2019-04-05T07:31:33.499Z,8.73
2019-04-05T07:34:02.996Z,8.47
2019-04-05T07:36:32.463Z,9.70
2019-04-05T07:39:01.917Z,9.67
2019-04-05T07:41:31.900Z,10.03
2019-04-05T07:44:01.520Z,11.60
2019-04-05T07:46:31.085Z,9.57
2019-04-05T07:49:00.551Z,10.97
2019-04-05T07:51:30.042Z,9.73
2019-04-05T07:53:59.501Z,9.33
2019-04-05T07:56:28.985Z,8.60
2019-04-05T07:58:58.524Z,9.73
2019-04-05T08:01:28.154Z,9.37
2019-04-05T08:03:58.194Z,10.87
2019-04-05T08:06:28.625Z,9.27
2019-04-05T08:09:05.938Z,10.17
2019-04-05T08:11:36.234Z,9.40
2019-04-05T08:14:06.188Z,10.00
2019-04-05T08:16:35.740Z,9.00
2019-04-05T08:19:05.346Z,8.50
2019-04-05T08:21:34.809Z,9.50
2019-04-05T08:24:04.514Z,7.97
2019-04-05T08:26:34.654Z,9.23
2019-04-05T08:29:04.292Z,7.87
2019-04-05T08:31:33.786Z,8.37
2019-04-05T08:34:03.275Z,9.60
2019-04-05T08:36:32.898Z,9.73
2019-04-05T08:39:02.412Z,8.60
2019-04-05T08:41:31.902Z,8.07
2019-04-05T08:44:01.400Z,7.83
2019-04-05T08:46:30.940Z,8.43
2019-04-05T08:49:10.129Z,6.60
2019-04-05T08:51:31.644Z,5.93
2019-04-05T08:54:01.068Z,5.73
2019-04-05T08:56:30.654Z,6.03
2019-04-05T08:59:00.211Z,5.13
2019-04-05T09:01:29.723Z,5.03
2019-04-05T09:03:59.174Z,5.77
2019-04-05T09:06:28.665Z,5.13
2019-04-05T09:08:58.127Z,5.90
2019-04-05T09:11:27.620Z,5.47
2019-04-05T09:13:57.108Z,5.00
2019-04-05T09:16:26.644Z,5.20
2019-04-05T09:18:56.209Z,5.50
2019-04-05T09:21:25.675Z,5.43
2019-04-05T09:23:55.163Z,6.30
2019-04-05T09:26:24.727Z,5.90
2019-04-05T09:28:54.218Z,5.73
2019-04-05T09:31:23.781Z,5.60
2019-04-05T09:33:53.277Z,6.07
2019-04-05T09:36:22.815Z,5.83
2019-04-05T09:38:52.332Z,5.73
2019-04-05T09:41:21.791Z,5.40
2019-04-05T09:43:51.249Z,5.33
2019-04-05T09:46:20.796Z,5.57
2019-04-05T09:48:50.408Z,5.57
2019-04-05T09:51:19.900Z,6.10
2019-04-05T09:53:49.404Z,5.73
2019-04-05T09:56:18.855Z,5.27
2019-04-05T09:58:48.427Z,5.40
2019-04-05T10:01:17.916Z,5.33
2019-04-05T10:03:47.661Z,5.83
2019-04-05T10:06:17.138Z,5.20
2019-04-05T10:08:46.652Z,4.27
2019-04-05T10:11:16.104Z,5.10
2019-04-05T10:13:45.666Z,4.97
2019-04-05T10:16:15.195Z,5.13
2019-04-05T10:18:44.662Z,4.30
2019-04-05T10:21:14.301Z,4.70
2019-04-05T10:23:43.769Z,4.70
2019-04-05T10:26:13.314Z,4.70
2019-04-05T10:28:42.787Z,4.23
2019-04-05T10:31:12.403Z,3.93
2019-04-05T10:33:41.898Z,4.13
2019-04-05T10:36:11.361Z,4.20
2019-04-05T10:38:40.881Z,4.40
2019-04-05T10:41:10.397Z,4.23
2019-04-05T10:43:39.958Z,4.00
2019-04-05T10:46:10.006Z,3.57
2019-04-05T10:48:39.536Z,3.17
2019-04-05T10:51:09.011Z,3.57
2019-04-05T10:53:38.543Z,3.53
2019-04-05T10:56:08.172Z,3.67
2019-04-05T10:58:37.731Z,4.13
2019-04-05T11:01:07.412Z,4.00
2019-04-05T11:03:36.894Z,3.93
2019-04-05T11:06:06.486Z,3.60
2019-04-05T11:08:36.045Z,4.17
2019-04-05T11:11:05.590Z,4.63
2019-04-05T11:13:35.087Z,4.83
2019-04-05T11:16:04.805Z,3.77
2019-04-05T11:18:34.373Z,4.23
2019-04-05T11:21:03.939Z,4.17
2019-04-05T11:23:33.419Z,4.63
2019-04-05T11:26:02.930Z,4.50
2019-04-05T11:28:32.484Z,5.20
2019-04-05T11:31:01.939Z,4.47
2019-04-05T11:33:31.508Z,4.77
2019-04-05T11:36:01.050Z,5.10
2019-04-05T11:38:31.278Z,4.43
2019-04-05T11:41:01.209Z,5.10
2019-04-05T11:43:33.579Z,5.23
2019-04-05T11:46:03.319Z,4.77
2019-04-05T11:48:33.219Z,5.93
2019-04-05T11:51:02.778Z,5.37
2019-04-05T11:53:32.247Z,5.43
2019-04-05T11:56:13.930Z,5.00
2019-04-05T11:58:33.090Z,4.80
2019-04-05T12:01:06.659Z,4.23
2019-04-05T12:03:36.307Z,4.87
2019-04-05T12:06:05.790Z,5.30
2019-04-05T12:08:35.262Z,5.13
2019-04-05T12:11:05.022Z,5.20
2019-04-05T12:13:34.520Z,5.33
2019-04-05T12:16:06.118Z,5.50
2019-04-05T12:18:35.529Z,5.50
2019-04-05T12:21:05.918Z,5.30
2019-04-05T12:23:35.421Z,4.97
2019-04-05T12:26:05.090Z,5.27
2019-04-05T12:28:34.601Z,4.87
2019-04-05T12:31:04.207Z,5.30
2019-04-05T12:33:33.761Z,7.00
2019-04-05T12:36:03.822Z,6.20
2019-04-05T12:38:34.050Z,6.27
2019-04-05T12:41:04.723Z,6.10
2019-04-05T12:43:35.327Z,6.33
2019-04-05T12:46:05.368Z,6.70
2019-04-05T12:48:34.937Z,6.43
2019-04-05T12:51:05.623Z,6.33
2019-04-05T12:53:35.470Z,6.30
2019-04-05T12:56:05.745Z,6.27
2019-04-05T12:58:35.246Z,6.27
2019-04-05T13:01:04.826Z,6.80
2019-04-05T13:03:34.585Z,7.00
2019-04-05T13:06:04.112Z,6.93
2019-04-05T13:08:33.604Z,6.80
2019-04-05T13:11:03.105Z,6.03
2019-04-05T13:13:32.833Z,6.60
2019-04-05T13:16:02.345Z,5.77
2019-04-05T13:18:31.900Z,5.90
2019-04-05T13:21:09.380Z,5.70
2019-04-05T13:23:33.767Z,6.23
2019-04-05T13:26:04.200Z,6.60
2019-04-05T13:28:33.744Z,6.17
2019-04-05T13:31:03.227Z,5.80
2019-04-05T13:33:32.703Z,6.50
2019-04-05T13:36:02.196Z,6.30
2019-04-05T13:38:31.685Z,6.10
2019-04-05T13:41:02.062Z,6.07
2019-04-05T13:43:32.618Z,6.03
2019-04-05T13:46:02.312Z,6.00
2019-04-05T13:48:31.807Z,5.50
2019-04-05T13:51:01.385Z,6.47
2019-04-05T13:53:30.857Z,5.60
2019-04-05T13:56:00.996Z,6.30
2019-04-05T13:58:30.475Z,6.00
2019-04-05T14:00:59.984Z,6.30
2019-04-05T14:03:29.459Z,6.13
2019-04-05T14:05:59.003Z,6.17
2019-04-05T14:08:28.487Z,6.40
2019-04-05T14:10:58.002Z,5.93
2019-04-05T14:13:27.477Z,6.73
2019-04-05T14:15:57.050Z,6.40
2019-04-05T14:18:26.548Z,6.90
2019-04-05T14:20:56.009Z,6.10
2019-04-05T14:23:26.487Z,6.43
2019-04-05T14:25:59.519Z,5.73
2019-04-05T14:28:27.287Z,6.07
2019-04-05T14:30:56.841Z,5.83
2019-04-05T14:33:26.310Z,6.53
2019-04-05T14:35:55.815Z,6.10
2019-04-05T14:38:25.294Z,6.17
2019-04-05T14:40:54.839Z,6.80
2019-04-05T14:43:24.306Z,5.37
2019-04-05T14:45:53.862Z,6.40
2019-04-05T14:48:23.446Z,6.47
2019-04-05T14:50:52.992Z,6.87
2019-04-05T14:53:22.541Z,6.77
2019-04-05T14:55:52.075Z,6.90
2019-04-05T14:58:21.559Z,6.97
2019-04-05T15:00:51.074Z,6.60
2019-04-05T15:03:20.589Z,7.10
2019-04-05T15:05:50.271Z,7.00
2019-04-05T15:08:20.721Z,7.17
2019-04-05T15:10:51.435Z,6.93
2019-04-05T15:13:21.105Z,6.60
2019-04-05T15:15:50.658Z,6.63
2019-04-05T15:18:24.219Z,7.43
2019-04-05T15:20:51.512Z,6.40
2019-04-05T15:23:20.984Z,7.17
2019-04-05T15:25:50.580Z,6.47
2019-04-05T15:28:20.142Z,6.93
2019-04-05T15:30:49.827Z,6.37
2019-04-05T15:33:19.496Z,7.20
2019-04-05T15:35:49.058Z,6.67
2019-04-05T15:38:18.580Z,7.03
2019-04-05T15:40:48.145Z,6.57
2019-04-05T15:43:18.506Z,7.40
2019-04-05T15:45:48.023Z,6.60
2019-04-05T15:48:17.535Z,7.30
2019-04-05T15:50:47.082Z,6.73
2019-04-05T15:53:16.566Z,6.67
2019-04-05T15:55:46.108Z,6.57
2019-04-05T15:58:15.676Z,8.40
2019-04-05T16:00:45.833Z,9.47
2019-04-05T16:03:16.362Z,9.63
2019-04-05T16:05:46.671Z,8.47
2019-04-05T16:08:18.525Z,8.23
2019-04-05T16:10:48.618Z,7.90
2019-04-05T16:13:18.113Z,8.40
2019-04-05T16:15:47.997Z,8.70
2019-04-05T16:18:17.599Z,8.23
2019-04-05T16:20:47.118Z,8.40
2019-04-05T16:23:16.642Z,7.70
2019-04-05T16:25:46.230Z,8.30
2019-04-05T16:28:15.711Z,7.40
2019-04-05T16:30:45.285Z,7.70
2019-04-05T16:33:14.770Z,8.40
2019-04-05T16:35:44.410Z,8.00
2019-04-05T16:38:13.958Z,8.87
2019-04-05T16:40:43.598Z,7.20
2019-04-05T16:43:13.205Z,8.53
2019-04-05T16:45:42.789Z,8.77
2019-04-05T16:48:12.274Z,8.73
2019-04-05T16:50:42.427Z,8.37
2019-04-05T16:53:12.017Z,8.23
2019-04-05T16:55:41.562Z,7.43
2019-04-05T16:58:11.308Z,8.40
2019-04-05T17:00:40.804Z,8.87
2019-04-05T17:03:10.350Z,8.40
2019-04-05T17:05:39.840Z,8.13
2019-04-05T17:08:09.383Z,7.80
2019-04-05T17:10:38.883Z,8.97
2019-04-05T17:13:08.338Z,8.73
2019-04-05T17:15:37.882Z,9.47
2019-04-05T17:18:07.548Z,8.33
2019-04-05T17:20:37.100Z,8.57
2019-04-05T17:23:06.662Z,9.17
2019-04-05T17:25:36.128Z,8.47
2019-04-05T17:28:05.715Z,9.47
2019-04-05T17:30:36.316Z,9.27
2019-04-05T17:33:06.018Z,8.90
2019-04-05T17:35:35.525Z,9.00
2019-04-05T17:38:05.146Z,8.23
2019-04-05T17:40:34.646Z,8.07
2019-04-05T17:43:04.214Z,8.47
2019-04-05T17:45:33.744Z,8.30
2019-04-05T17:48:03.254Z,8.47
2019-04-05T17:50:34.518Z,8.43
2019-04-05T17:53:12.062Z,7.93
2019-04-05T17:55:35.806Z,9.03
2019-04-05T17:58:06.956Z,8.23
2019-04-05T18:00:36.919Z,7.73
2019-04-05T18:03:06.558Z,8.00
2019-04-05T18:05:36.199Z,8.97
2019-04-05T18:08:05.739Z,7.93
2019-04-05T18:10:35.301Z,8.47
2019-04-05T18:13:04.927Z,8.87
2019-04-05T18:15:34.523Z,8.77
2019-04-05T18:18:04.074Z,8.20
2019-04-05T18:20:33.645Z,8.77
2019-04-05T18:23:03.227Z,8.80
2019-04-05T18:25:32.914Z,8.80
2019-04-05T18:28:02.627Z,9.17
2019-04-05T18:30:32.129Z,8.93
2019-04-05T18:33:01.734Z,8.23
2019-04-05T18:35:31.261Z,8.43
2019-04-05T18:38:00.725Z,8.73
2019-04-05T18:40:39.518Z,9.07
2019-04-05T18:43:01.572Z,8.50
2019-04-05T18:45:33.488Z,9.27
2019-04-05T18:48:02.459Z,9.10
2019-04-05T18:50:32.043Z,9.47
2019-04-05T18:53:01.582Z,7.63
2019-04-05T18:55:31.186Z,8.80
2019-04-05T18:58:00.696Z,9.33
2019-04-05T19:00:30.263Z,8.63
2019-04-05T19:02:59.895Z,9.23
2019-04-05T19:05:29.450Z,8.53
2019-04-05T19:07:59.003Z,9.27
2019-04-05T19:10:36.852Z,9.00
2019-04-05T19:12:59.935Z,9.07
2019-04-05T19:15:29.381Z,8.73
2019-04-05T19:17:58.901Z,9.33
2019-04-05T19:20:28.363Z,8.70
2019-04-05T19:22:57.895Z,8.67
2019-04-05T19:25:27.381Z,9.07
2019-04-05T19:27:56.957Z,8.67
2019-04-05T19:50:36.915Z,9.17
2019-04-05T19:53:06.383Z,7.93
2019-04-05T19:55:36.499Z,8.70
2019-04-05T19:58:06.264Z,8.60
2019-04-05T20:00:35.814Z,8.57
2019-04-05T20:03:05.673Z,8.53
2019-04-05T20:05:35.135Z,7.97
2019-04-05T20:08:04.715Z,8.17
2019-04-05T20:10:34.214Z,9.33
2019-04-05T20:13:03.789Z,7.97
2019-04-05T20:15:33.265Z,8.37
2019-04-05T20:18:02.839Z,8.83
2019-04-05T20:20:32.309Z,8.63
2019-04-05T20:23:01.922Z,9.03
2019-04-05T20:25:31.402Z,7.87
2019-04-05T20:28:00.915Z,8.57
2019-04-05T20:30:30.504Z,7.60
2019-04-05T20:33:00.228Z,7.67
2019-04-05T20:35:29.819Z,10.00
2019-04-05T20:37:59.367Z,9.00
2019-04-05T20:40:28.873Z,8.23
2019-04-05T20:42:59.941Z,8.40
2019-04-05T20:45:29.612Z,7.70
2019-04-05T20:47:59.099Z,7.93
2019-04-05T20:50:28.639Z,8.50
2019-04-05T20:52:58.094Z,7.77
2019-04-05T20:55:27.586Z,7.87
2019-04-05T20:57:57.088Z,7.20
2019-04-05T21:00:26.564Z,7.77
2019-04-05T21:02:56.087Z,7.43
2019-04-05T21:05:25.874Z,7.27
2019-04-05T21:07:55.428Z,7.37
2019-04-05T21:10:24.893Z,7.10
2019-04-05T21:12:54.409Z,7.63
2019-04-05T21:15:23.923Z,7.80
2019-04-05T21:17:53.493Z,6.77
2019-04-05T21:20:22.980Z,7.07
2019-04-05T21:22:52.461Z,6.53
2019-04-05T21:25:21.956Z,7.70
2019-04-05T21:27:51.433Z,7.63
2019-04-05T21:30:21.079Z,7.47
2019-04-05T21:32:50.543Z,7.53
2019-04-05T21:35:20.067Z,8.27
2019-04-05T21:37:49.542Z,8.33
2019-04-05T21:40:19.125Z,7.47
2019-04-05T21:42:48.626Z,7.30
2019-04-05T21:45:18.198Z,6.60
2019-04-05T21:47:47.761Z,6.57
2019-04-05T21:50:17.328Z,7.73
2019-04-05T21:52:46.817Z,8.27
2019-04-05T21:55:16.295Z,7.97
2019-04-05T21:57:45.790Z,9.33
2019-04-05T22:00:25.824Z,7.03
2019-04-05T22:02:55.468Z,6.23
2019-04-05T22:05:24.995Z,6.23
2019-04-05T22:07:54.529Z,8.03
2019-04-05T22:10:24.026Z,8.20
2019-04-05T22:12:53.515Z,8.07
2019-04-05T22:15:22.992Z,6.90
2019-04-05T22:17:52.501Z,6.63
2019-04-05T22:20:21.962Z,6.57
2019-04-05T22:22:51.454Z,6.23
2019-04-05T22:25:20.912Z,5.80
2019-04-05T22:27:52.057Z,6.90
2019-04-05T22:30:21.560Z,7.27
2019-04-05T22:32:51.023Z,7.53
2019-04-05T22:35:20.508Z,7.10
2019-04-05T22:37:50.008Z,7.30
2019-04-05T22:40:19.464Z,7.50
2019-04-05T22:42:48.955Z,7.60
2019-04-05T22:45:18.537Z,7.47
2019-04-05T22:47:48.021Z,7.23
2019-04-05T22:50:17.571Z,7.90
2019-04-05T22:52:47.050Z,6.93
2019-04-05T22:55:16.524Z,7.53
2019-04-05T22:57:46.023Z,7.40
2019-04-05T23:00:17.418Z,7.30
2019-04-05T23:02:46.895Z,6.60
2019-04-05T23:05:16.350Z,7.07
2019-04-05T23:07:45.870Z,7.40
2019-04-05T23:10:17.215Z,6.70
2019-04-05T23:12:46.716Z,7.90
2019-04-05T23:15:16.318Z,6.50
2019-04-05T23:17:45.816Z,6.73
2019-04-05T23:20:15.627Z,7.00
2019-04-05T23:22:45.179Z,7.00
2019-04-05T23:25:21.745Z,8.23
2019-04-05T23:27:45.898Z,8.17
2019-04-05T23:30:18.131Z,6.40
2019-04-05T23:32:47.633Z,7.00
2019-04-05T23:35:17.105Z,7.87
2019-04-05T23:37:46.630Z,7.30
2019-04-05T23:40:16.211Z,6.60
2019-04-05T23:42:45.781Z,6.67
2019-04-05T23:45:15.429Z,7.30
2019-04-05T23:47:44.894Z,7.23
2019-04-05T23:50:14.534Z,8.80
2019-04-05T23:52:43.998Z,6.87
2019-04-05T23:55:13.648Z,8.07
2019-04-05T23:57:43.137Z,6.83
